Αίθριος, λίγα cirrus
Αίθριος, λίγα cirrus
Αίθριος ουρανός
Αίθριος ουρανός
Αίθριος ουρανός
Αίθριος ουρανός
Αίθριος ουρανός
(°C)
-1°
-1°
-2°
-2°
-3°
-3°
-4°
-4°
-5°
-5°
(°C)
-5°
-6°
-7°
-9°
-10°
-10°
-11°
ΔΝΔ
ΔΝΔ
ΝΔ
ΝΔ
ΝΔ
ΝΔ
ΔΝΔ
(km/h)
19-23
17-23
17-24
17-24
16-24
16-25
16-25
(χιλιοστά)
0
0
0
0
0
0
0
(%)
0
0
0
0
0
0
0

Ανύψωση ήλιου

/ 12.1°
sun-icon
UV 2
06:22
17:26
Φθίνων αμφίκυρτος (φάση σελήνης) (280°)
03:23
08:48

METAR για 55.61°Β 49.28°Α (UWKD)

Χρόνος Συνθήκες Θερμοκρασία/
Σημείο δρόσου
Άνεμος Ορατότητα Καιρός Νέφη Πίεση Αλλαγή Ανεπεξέργαστο
VFR 1°C / -6°C 250º 10kt 9700m - Clouds and Visibility OK 1023 No Significant change UWKD 041200Z 25005MPS CAVOK 01/M06 Q1023 R29/CLRD60 NOSIG RMK QFE756/1008
VFR 1°C / -6°C 260º 10kt 9700m - Clouds and Visibility OK 1024 No Significant change UWKD 041130Z 26005MPS CAVOK 01/M06 Q1024 R29/CLRD60 NOSIG RMK QFE756/1009
VFR 1°C / -6°C 250º 6kt 9700m - Clouds and Visibility OK 1024 No Significant change UWKD 041100Z 25003MPS CAVOK 01/M06 Q1024 R29/CLRD60 NOSIG RMK QFE757/1009
VFR 1°C / -6°C 230º 6kt 9700m - Clouds and Visibility OK 1024 No Significant change UWKD 041030Z 23003MPS CAVOK 01/M06 Q1024 R29/CLRD60 NOSIG RMK QFE757/1009
VFR -1°C / -6°C 220º variable 190º to 250º 4kt 9700m - Clouds and Visibility OK 1024 No Significant change UWKD 041000Z 22002MPS 190V250 CAVOK M01/M06 Q1024 R29/CLRD60 NOSIG RMK QFE757/1010
VFR -2°C / -6°C 210º 6kt 9700m - Clouds and Visibility OK 1025 No Significant change UWKD 040930Z 21003MPS CAVOK M02/M06 Q1025 R29/CLRD60 NOSIG RMK QFE757/1010
VFR -3°C / -7°C 220º 4kt 9700m - Clouds and Visibility OK 1025 No Significant change UWKD 040900Z 22002MPS CAVOK M03/M07 Q1025 R29/CLRD60 NOSIG RMK QFE757/1010
VFR -4°C / -6°C 210º 6kt 9000m - Clear 1025 No Significant change UWKD 040830Z 21003MPS 9000 NSC M04/M06 Q1025 R29/CLRD60 NOSIG RMK QFE758/1010
VFR -5°C / -6°C 210º 4kt 9000m - Clear 1026 No Significant change UWKD 040800Z 21002MPS 9000 NSC M05/M06 Q1026 R29/60D NOSIG RMK QFE758/1011
VFR -6°C / -7°C 210º variable 190º to 250º 4kt 9000m - Clear 1026 No Significant change UWKD 040730Z 21002MPS 190V250 9000 NSC M06/M07 Q1026 R29/CLRD60 NOSIG RMK QFE758/1011
VFR -6°C / -7°C 220º 4kt 9000m - Clear 1026 No Significant change UWKD 040700Z 22002MPS 9000 NSC M06/M07 Q1026 R29/CLRD60 NOSIG RMK QFE758/1011
MVFR -7°C / -8°C 230º 4kt 7000m - Clear 1026 No Significant change UWKD 040630Z 23002MPS 7000 NSC M07/M08 Q1026 R29/CLRD60 NOSIG RMK QFE758/1011
MVFR -7°C / -8°C 230º 2kt 5000m Mist Clear 1026 No Significant change UWKD 040600Z 23001MPS 5000 BR NSC M07/M08 Q1026 R29/CLRD60 NOSIG RMK QFE759/1012
MVFR °C / °C 190º 4kt 5000m Mist Clear 1027 No Significant change UWKD 040530Z 19002MPS 5000 BR NSC M10/M11 Q1027 R11/CLRD60 NOSIG RMK QFE760/1013
MVFR °C / °C 180º 4kt 5000m Mist Clear 1027 No Significant change UWKD 040500Z 18002MPS 5000 BR NSC M10/M11 Q1027 R11/CLRD60 NOSIG RMK QFE760/1013
IFR °C / °C 170º 4kt 3600m freezing Fog Clear 1027 No Significant change UWKD 040430Z 17002MPS 3600 0800SW FZFG NSC M14/M15 Q1027 R11/CLRD60 NOSIG RMK QFE760/1013
LIFR °C / °C 170º 2kt 1100m freezing Fog Scattered Clouds 400ft 1027 No Significant change UWKD 040400Z 17001MPS 1100 0550SW FZFG SCT004 M17/M18 Q1027 R11/CLRD60 NOSIG RMK QFE760/1014
LIFR °C / °C 170º 2kt 1700m Mist Broken Clouds 300ft 1027 No Significant change UWKD 040330Z 17001MPS 1700 BR BKN003 M16/M18 Q1027 R11/60D NOSIG RMK QFE760/1014
LIFR °C / °C 180º 4kt 190m freezing Fog Broken Clouds 400ft 1027 No Significant change UWKD 040300Z 18002MPS 0200 0150SE FZFG BKN004 M13/M15 Q1027 R11/CLRD60 NOSIG RMK QFE760/1014
LIFR °C / °C 160º 2kt 100m freezing Fog Clear 1027 No Significant change UWKD 040230Z 16001MPS 0100 FZFG NSC M17/M18 Q1027 R11/CLRD60 NOSIG RMK QFE760/1014
LIFR °C / °C 170º 2kt 550m freezing Fog Clear 1027 No Significant change UWKD 040200Z 17001MPS 0550 0250SE FZFG NSC M16/M18 Q1027 R11/60D NOSIG RMK QFE760/1014
LIFR °C / °C variable 0kt 1100m. Runway 11: Visual range is 1800m and increasing. freezing Fog Clear 1028 No Significant change UWKD 040130Z 00000MPS 1100 0300SW R11/1800U FZFG NSC M15/M16 Q1028 R11/CLRD60 NOSIG RMK QFE760/1014
IFR °C / °C 2kt 2600m freezing Fog Clear 1028 No Significant change UWKD 040100Z VRB01MPS 2600 0500SW FZFG NSC M15/M17 Q1028 R11/CLRD60 NOSIG RMK QFE761/1014
IFR °C / °C 180º 4kt 3700m Mist Scattered Clouds 700ft 1028 No Significant change UWKD 040030Z 18002MPS 3700 1200SW BR SCT007 M15/M16 Q1028 R11/CLRD60 NOSIG RMK QFE761/1014

VFR

1°C / -6°C

[Περισσότερο]
Άνεμος 250º 10kt
Ορατότητα 9700m
Καιρός -
Νέφη Clouds and Visibility OK
Πίεση 1023
Αλλαγή No Significant change
Ανεπεξέργαστο UWKD 041200Z 25005MPS CAVOK 01/M06 Q1023 R29/CLRD60 NOSIG RMK QFE756/1008

VFR

1°C / -6°C

[Περισσότερο]
Άνεμος 260º 10kt
Ορατότητα 9700m
Καιρός -
Νέφη Clouds and Visibility OK
Πίεση 1024
Αλλαγή No Significant change
Ανεπεξέργαστο UWKD 041130Z 26005MPS CAVOK 01/M06 Q1024 R29/CLRD60 NOSIG RMK QFE756/1009

VFR

1°C / -6°C

[Περισσότερο]
Άνεμος 250º 6kt
Ορατότητα 9700m
Καιρός -
Νέφη Clouds and Visibility OK
Πίεση 1024
Αλλαγή No Significant change
Ανεπεξέργαστο UWKD 041100Z 25003MPS CAVOK 01/M06 Q1024 R29/CLRD60 NOSIG RMK QFE757/1009

VFR

1°C / -6°C

[Περισσότερο]
Άνεμος 230º 6kt
Ορατότητα 9700m
Καιρός -
Νέφη Clouds and Visibility OK
Πίεση 1024
Αλλαγή No Significant change
Ανεπεξέργαστο UWKD 041030Z 23003MPS CAVOK 01/M06 Q1024 R29/CLRD60 NOSIG RMK QFE757/1009

VFR

-1°C / -6°C

[Περισσότερο]
Άνεμος 220º variable 190º to 250º 4kt
Ορατότητα 9700m
Καιρός -
Νέφη Clouds and Visibility OK
Πίεση 1024
Αλλαγή No Significant change
Ανεπεξέργαστο UWKD 041000Z 22002MPS 190V250 CAVOK M01/M06 Q1024 R29/CLRD60 NOSIG RMK QFE757/1010

VFR

-2°C / -6°C

[Περισσότερο]
Άνεμος 210º 6kt
Ορατότητα 9700m
Καιρός -
Νέφη Clouds and Visibility OK
Πίεση 1025
Αλλαγή No Significant change
Ανεπεξέργαστο UWKD 040930Z 21003MPS CAVOK M02/M06 Q1025 R29/CLRD60 NOSIG RMK QFE757/1010

VFR

-3°C / -7°C

[Περισσότερο]
Άνεμος 220º 4kt
Ορατότητα 9700m
Καιρός -
Νέφη Clouds and Visibility OK
Πίεση 1025
Αλλαγή No Significant change
Ανεπεξέργαστο UWKD 040900Z 22002MPS CAVOK M03/M07 Q1025 R29/CLRD60 NOSIG RMK QFE757/1010

VFR

-4°C / -6°C

[Περισσότερο]
Άνεμος 210º 6kt
Ορατότητα 9000m
Καιρός -
Νέφη Clear
Πίεση 1025
Αλλαγή No Significant change
Ανεπεξέργαστο UWKD 040830Z 21003MPS 9000 NSC M04/M06 Q1025 R29/CLRD60 NOSIG RMK QFE758/1010

VFR

-5°C / -6°C

[Περισσότερο]
Άνεμος 210º 4kt
Ορατότητα 9000m
Καιρός -
Νέφη Clear
Πίεση 1026
Αλλαγή No Significant change
Ανεπεξέργαστο UWKD 040800Z 21002MPS 9000 NSC M05/M06 Q1026 R29/60D NOSIG RMK QFE758/1011

VFR

-6°C / -7°C

[Περισσότερο]
Άνεμος 210º variable 190º to 250º 4kt
Ορατότητα 9000m
Καιρός -
Νέφη Clear
Πίεση 1026
Αλλαγή No Significant change
Ανεπεξέργαστο UWKD 040730Z 21002MPS 190V250 9000 NSC M06/M07 Q1026 R29/CLRD60 NOSIG RMK QFE758/1011

VFR

-6°C / -7°C

[Περισσότερο]
Άνεμος 220º 4kt
Ορατότητα 9000m
Καιρός -
Νέφη Clear
Πίεση 1026
Αλλαγή No Significant change
Ανεπεξέργαστο UWKD 040700Z 22002MPS 9000 NSC M06/M07 Q1026 R29/CLRD60 NOSIG RMK QFE758/1011

MVFR

-7°C / -8°C

[Περισσότερο]
Άνεμος 230º 4kt
Ορατότητα 7000m
Καιρός -
Νέφη Clear
Πίεση 1026
Αλλαγή No Significant change
Ανεπεξέργαστο UWKD 040630Z 23002MPS 7000 NSC M07/M08 Q1026 R29/CLRD60 NOSIG RMK QFE758/1011

MVFR

-7°C / -8°C

[Περισσότερο]
Άνεμος 230º 2kt
Ορατότητα 5000m
Καιρός Mist
Νέφη Clear
Πίεση 1026
Αλλαγή No Significant change
Ανεπεξέργαστο UWKD 040600Z 23001MPS 5000 BR NSC M07/M08 Q1026 R29/CLRD60 NOSIG RMK QFE759/1012

MVFR

°C / °C

[Περισσότερο]
Άνεμος 190º 4kt
Ορατότητα 5000m
Καιρός Mist
Νέφη Clear
Πίεση 1027
Αλλαγή No Significant change
Ανεπεξέργαστο UWKD 040530Z 19002MPS 5000 BR NSC M10/M11 Q1027 R11/CLRD60 NOSIG RMK QFE760/1013

MVFR

°C / °C

[Περισσότερο]
Άνεμος 180º 4kt
Ορατότητα 5000m
Καιρός Mist
Νέφη Clear
Πίεση 1027
Αλλαγή No Significant change
Ανεπεξέργαστο UWKD 040500Z 18002MPS 5000 BR NSC M10/M11 Q1027 R11/CLRD60 NOSIG RMK QFE760/1013

IFR

°C / °C

[Περισσότερο]
Άνεμος 170º 4kt
Ορατότητα 3600m
Καιρός freezing Fog
Νέφη Clear
Πίεση 1027
Αλλαγή No Significant change
Ανεπεξέργαστο UWKD 040430Z 17002MPS 3600 0800SW FZFG NSC M14/M15 Q1027 R11/CLRD60 NOSIG RMK QFE760/1013

LIFR

°C / °C

[Περισσότερο]
Άνεμος 170º 2kt
Ορατότητα 1100m
Καιρός freezing Fog
Νέφη Scattered Clouds 400ft
Πίεση 1027
Αλλαγή No Significant change
Ανεπεξέργαστο UWKD 040400Z 17001MPS 1100 0550SW FZFG SCT004 M17/M18 Q1027 R11/CLRD60 NOSIG RMK QFE760/1014

LIFR

°C / °C

[Περισσότερο]
Άνεμος 170º 2kt
Ορατότητα 1700m
Καιρός Mist
Νέφη Broken Clouds 300ft
Πίεση 1027
Αλλαγή No Significant change
Ανεπεξέργαστο UWKD 040330Z 17001MPS 1700 BR BKN003 M16/M18 Q1027 R11/60D NOSIG RMK QFE760/1014

LIFR

°C / °C

[Περισσότερο]
Άνεμος 180º 4kt
Ορατότητα 190m
Καιρός freezing Fog
Νέφη Broken Clouds 400ft
Πίεση 1027
Αλλαγή No Significant change
Ανεπεξέργαστο UWKD 040300Z 18002MPS 0200 0150SE FZFG BKN004 M13/M15 Q1027 R11/CLRD60 NOSIG RMK QFE760/1014

LIFR

°C / °C

[Περισσότερο]
Άνεμος 160º 2kt
Ορατότητα 100m
Καιρός freezing Fog
Νέφη Clear
Πίεση 1027
Αλλαγή No Significant change
Ανεπεξέργαστο UWKD 040230Z 16001MPS 0100 FZFG NSC M17/M18 Q1027 R11/CLRD60 NOSIG RMK QFE760/1014

LIFR

°C / °C

[Περισσότερο]
Άνεμος 170º 2kt
Ορατότητα 550m
Καιρός freezing Fog
Νέφη Clear
Πίεση 1027
Αλλαγή No Significant change
Ανεπεξέργαστο UWKD 040200Z 17001MPS 0550 0250SE FZFG NSC M16/M18 Q1027 R11/60D NOSIG RMK QFE760/1014

LIFR

°C / °C

[Περισσότερο]
Άνεμος variable 0kt
Ορατότητα 1100m. Runway 11: Visual range is 1800m and increasing.
Καιρός freezing Fog
Νέφη Clear
Πίεση 1028
Αλλαγή No Significant change
Ανεπεξέργαστο UWKD 040130Z 00000MPS 1100 0300SW R11/1800U FZFG NSC M15/M16 Q1028 R11/CLRD60 NOSIG RMK QFE760/1014

IFR

°C / °C

[Περισσότερο]
Άνεμος 2kt
Ορατότητα 2600m
Καιρός freezing Fog
Νέφη Clear
Πίεση 1028
Αλλαγή No Significant change
Ανεπεξέργαστο UWKD 040100Z VRB01MPS 2600 0500SW FZFG NSC M15/M17 Q1028 R11/CLRD60 NOSIG RMK QFE761/1014

IFR

°C / °C

[Περισσότερο]
Άνεμος 180º 4kt
Ορατότητα 3700m
Καιρός Mist
Νέφη Scattered Clouds 700ft
Πίεση 1028
Αλλαγή No Significant change
Ανεπεξέργαστο UWKD 040030Z 18002MPS 3700 1200SW BR SCT007 M15/M16 Q1028 R11/CLRD60 NOSIG RMK QFE761/1014

TAF για 55.61°Β 49.28°Α (UWKD)

From till


Maximum Temperature 1ºC on . Minimum Temperature -12ºC on .
From till Wind 220º 6kt. Visibility 6000m. Nil Significant Cloud.
Becoming from till
Temporarly from till Visibility 498.895m. freezing Fog . Obscured Sky.
Temporarly from till Visibility 1500m. Snow . Broken Clouds 700ft.

Ανεπεξέργαστο: TAF UWKD 041054Z 0412/0512 22003MPS 6000 NSC TX01/0413Z TNM12/0503Z BECMG 0414/0415 3000 BR SCT020 TEMPO 0417/0501 0500 FZFG VV003 TEMPO 0501/0508 1500 SN BKN007

Ραντάρ και πρόγνωση υετού μικρής διάρκειας για 55.61°Β 49.28°Α

Ψιλοβρέχει
Ελαφριά
Μέτρια
Έντονη
Πολύ έντονες
Χαλάζι

Ο δείκτης θέσης τοποθετείται στο 55.61°Β 49.28°Α. Αυτό το κινούμενο σχέδιο δείχνει το ραντάρ βροχόπτωσης για το επιλεγμένο χρονικό εύρος, καθώς και μια πρόγνωση 2h. Οι πορτοκαλί σταυροί υποδεικνύουν κεραυνούς. Δεδομένα που παρέχονται από nowcast.de (διαθέσιμα στις ΗΠΑ, την Ευρώπη, την Αυστραλία). Το ψιλόβροχο ή το ελαφρύ χιόνι μπορεί να είναι αόρατο για το ραντάρ. Η ένταση της βροχόπτωσης είναι χρωματικά κωδικοποιημένη και κυμαίνεται από τυρκουάζ έως κόκκινο.

Τρέχουσες εικόνες δορυφόρου και βροχής για 55.61°Β 49.28°Α

Η ένδειξη τοποθεσίας τοποθετείται στο 55.61°Β 49.28°Α. [Περισσότερο]

Οι δορυφορικές εικόνες σε πραγματικό χρόνο συνδυάζουν ορατό φως κατά τη διάρκεια της ημέρας με υπέρυθρη ακτινοβολία κατά τη διάρκεια της νύχτας. Κατά τη διάρκεια της νύχτας, η εικόνα δεν είναι σκοτεινή μιας και η υπέρυθρη ακτινοβολία μπορεί να εντοπίσει τις διαφορές στη θερμοκρασία. Δυστυχώς, είναι δύσκολο να ξεχωρίσουν οι χαμηλές νεφώσεις και η ομίχλη από τις θερμοκρασίες εδάφους και έτσι μπορεί να είναι σχετικά αόρατα κατά τη διάρκεια της νύχτας. Οι εικόνες από τον δορυφόρο Meteosat για την Ευρώπη ενημερώνονται σε πραγματικό χρόνο κάθε 5 λεπτά. Οι εικόνες από τους δορυφόρους GOES-16/GOES-17 (Βόρεια & Λατινική Αμερική) και Himawari (Ασία) ενημερώνονται κάθε 10 λεπτά.

Η βροχόπτωση εκτιμάται από ραντάρ και δορυφόρους. Οι εκτιμήσεις βροχόπτωσης από τους δορυφόρους είναι λιγότερο ακριβείς τη νύχτα απ' ό,τι κατά τη διάρκεια της ημέρας.

© 2024 meteoblue, NOAA Satellites GOES-16 and EUMETSAT. Δεδομένα αστραπών παρεχόμενα από nowcast.

Επιστροφή στην κορυφή
×
Γεια σου,
φαίνεται ότι χρησιμοποιείς ένα πρόγραμμα αποκλεισμού διαφημίσεων.

Η διαφήμιση είναι απαραίτητη για τη διατήρηση του δωρεάν ιστότοπού μας με μοναδική λεπτομέρεια και ακρίβεια.

Παρακαλούμε καταχωρήστε το www.meteoblue.com στη λευκή λίστα του ad blocker σας ή σκεφτείτε να αγοράσετε ένα από τα προϊόντα μας:

Έχετε ήδη συνδρομή;
Τότε παρακαλούμε σύνδεση.